Time;durP1;ratioP1;P1;durP2;ratioP2;P2;SDS_P1;SDS_P2;PMS_P1;PMS_P2;Temp;Humidity;BMP_temperature;BMP_pressure;BME280_temperature;BME280_humidity;BME280_pressure;Samples;Min_cycle;Max_cycle;Signal;HPM_P1;HPM_P2
2021/04/19 00:00:06;;;;;;;22.40;10.98;;;7.10;99.90;;;;;;5021403;28;20874;-88
2021/04/19 00:02:32;;;;;;;21.48;10.07;;;7.00;99.90;;;;;;5027169;28;20069;-86
2021/04/19 00:04:59;;;;;;;25.08;11.35;;;7.00;99.90;;;;;;5009738;28;20076;-85
2021/04/19 00:07:25;;;;;;;25.70;11.65;;;7.00;99.90;;;;;;5011045;28;20532;-86
2021/04/19 00:09:52;;;;;;;19.92;11.00;;;6.90;99.90;;;;;;5006513;28;20057;-86
2021/04/19 00:12:18;;;;;;;25.35;12.18;;;6.90;99.90;;;;;;5008832;28;20111;-85
2021/04/19 00:14:45;;;;;;;20.05;11.32;;;6.90;99.90;;;;;;5008031;28;20105;-86
2021/04/19 00:17:11;;;;;;;29.15;12.80;;;6.90;99.90;;;;;;5003681;28;20133;-86
2021/04/19 00:19:37;;;;;;;21.42;11.30;;;6.80;99.90;;;;;;5008638;28;20107;-85
2021/04/19 00:22:04;;;;;;;26.35;13.63;;;6.80;99.90;;;;;;5006047;28;20132;-85
2021/04/19 00:24:30;;;;;;;24.55;12.95;;;6.80;99.90;;;;;;5004436;28;20560;-86
2021/04/19 00:26:57;;;;;;;26.10;12.68;;;6.80;99.90;;;;;;5004238;28;20054;-84
2021/04/19 00:29:23;;;;;;;24.02;12.57;;;6.80;99.90;;;;;;5006180;28;20133;-86
2021/04/19 00:31:49;;;;;;;22.27;13.10;;;6.80;99.90;;;;;;5006713;28;20114;-85
2021/04/19 00:34:16;;;;;;;26.75;14.77;;;6.70;99.90;;;;;;5003767;28;20052;-85
2021/04/19 00:36:42;;;;;;;31.42;14.80;;;6.70;99.90;;;;;;5007173;28;20050;-85
2021/04/19 00:39:08;;;;;;;29.88;14.65;;;6.70;99.90;;;;;;5008657;28;20080;-86
2021/04/19 00:41:35;;;;;;;26.65;13.93;;;6.60;99.90;;;;;;5009101;28;20164;-86
2021/04/19 00:44:01;;;;;;;30.70;14.65;;;6.60;99.90;;;;;;5009137;28;20050;-86
2021/04/19 00:46:28;;;;;;;30.15;14.80;;;6.60;99.90;;;;;;5025733;28;20050;-86
2021/04/19 00:48:54;;;;;;;26.00;14.57;;;6.60;99.90;;;;;;5007959;28;20053;-85
2021/04/19 00:51:21;;;;;;;30.35;14.60;;;6.60;99.90;;;;;;5008933;28;20054;-86
2021/04/19 00:53:47;;;;;;;28.88;15.13;;;6.50;99.90;;;;;;5022179;28;20072;-85
2021/04/19 00:56:14;;;;;;;32.65;16.48;;;6.50;99.90;;;;;;5024625;28;20052;-85
2021/04/19 00:58:42;;;;;;;31.70;16.98;;;6.50;99.90;;;;;;5024957;28;20065;-87
2021/04/19 01:01:08;;;;;;;31.35;15.02;;;6.50;99.90;;;;;;5009164;28;20062;-86
2021/04/19 01:03:36;;;;;;;27.02;14.38;;;6.50;99.90;;;;;;5022705;28;20484;-86
2021/04/19 01:06:03;;;;;;;28.42;14.57;;;6.50;99.90;;;;;;5005438;28;20058;-85
2021/04/19 01:08:29;;;;;;;29.33;15.27;;;6.50;99.90;;;;;;5008242;28;20066;-85
2021/04/19 01:10:56;;;;;;;27.27;14.82;;;6.50;99.90;;;;;;5011054;28;20092;-85
2021/04/19 01:13:22;;;;;;;32.85;15.40;;;6.50;99.90;;;;;;5006856;28;20064;-87
2021/04/19 01:15:48;;;;;;;27.95;15.18;;;6.50;99.90;;;;;;5007279;28;20077;-87
2021/04/19 01:18:14;;;;;;;28.55;14.63;;;6.50;99.90;;;;;;5006003;28;20062;-86
2021/04/19 01:20:48;;;;;;;27.10;15.07;;;6.40;99.90;;;;;;5013980;28;20068;-86
2021/04/19 01:23:16;;;;;;;29.77;15.05;;;6.40;99.90;;;;;;5007400;28;20038;-86
2021/04/19 01:25:43;;;;;;;34.72;16.85;;;6.40;99.90;;;;;;5007636;28;20172;-87
2021/04/19 01:28:10;;;;;;;32.38;17.00;;;6.40;99.90;;;;;;5008215;28;20049;-86
2021/04/19 01:30:47;;;;;;;28.00;15.55;;;6.40;99.90;;;;;;5023717;28;20045;-86
2021/04/19 01:33:14;;;;;;;31.83;15.52;;;6.40;99.90;;;;;;5005569;28;20046;-86
2021/04/19 01:35:42;;;;;;;31.65;16.13;;;6.40;99.90;;;;;;5009832;28;20120;-85
2021/04/19 01:38:10;;;;;;;32.47;15.55;;;6.30;99.90;;;;;;5008669;28;20046;-85
2021/04/19 01:40:37;;;;;;;26.98;15.48;;;6.30;99.90;;;;;;5012052;28;20054;-84
2021/04/19 01:43:04;;;;;;;32.05;15.55;;;6.30;99.90;;;;;;5006819;28;20077;-85
2021/04/19 01:45:31;;;;;;;31.05;16.60;;;6.30;99.90;;;;;;5024897;28;20072;-84
2021/04/19 01:47:57;;;;;;;33.55;16.42;;;6.30;99.90;;;;;;5000503;28;20058;-85
2021/04/19 01:50:29;;;;;;;31.00;15.18;;;6.20;99.90;;;;;;5002916;28;20058;-85
2021/04/19 01:52:58;;;;;;;32.28;15.60;;;6.30;99.90;;;;;;5006647;28;20144;-85
2021/04/19 01:55:28;;;;;;;35.38;16.05;;;6.20;99.90;;;;;;5022145;28;20046;-86
2021/04/19 01:58:07;;;;;;;37.20;15.85;;;6.20;99.90;;;;;;5007239;28;20149;-86
2021/04/19 02:00:37;;;;;;;31.08;16.48;;;6.20;99.90;;;;;;5005271;28;20050;-86
2021/04/19 02:03:06;;;;;;;29.15;15.38;;;6.20;99.90;;;;;;5007554;28;20072;-85
2021/04/19 02:05:56;;;;;;;36.80;16.10;;;6.20;99.90;;;;;;5009887;28;20049;-86
2021/04/19 02:08:37;;;;;;;26.65;15.23;;;6.20;99.90;;;;;;5010782;28;20050;-86
2021/04/19 02:11:48;;;;;;;32.70;16.17;;;6.20;99.90;;;;;;5023182;28;20080;-85
2021/04/19 02:14:17;;;;;;;44.72;15.75;;;6.10;99.90;;;;;;4983805;28;20068;-86
2021/04/19 02:17:18;;;;;;;29.38;15.65;;;6.10;99.90;;;;;;5026449;28;20109;-86
2021/04/19 02:20:07;;;;;;;35.38;16.50;;;6.10;99.90;;;;;;5008337;28;20084;-86
2021/04/19 02:22:40;;;;;;;28.75;16.17;;;6.10;99.90;;;;;;5023075;28;20073;-86
2021/04/19 02:25:15;;;;;;;32.38;16.88;;;6.00;99.90;;;;;;5002314;28;20765;-87
2021/04/19 02:27:46;;;;;;;36.70;17.75;;;6.00;99.90;;;;;;5021216;28;20170;-85
2021/04/19 02:30:16;;;;;;;30.80;15.73;;;6.00;99.90;;;;;;5003644;28;20046;-86
2021/04/19 02:32:51;;;;;;;26.70;15.13;;;6.00;99.90;;;;;;4999166;28;20073;-87
2021/04/19 02:35:21;;;;;;;36.45;16.10;;;6.00;99.90;;;;;;5008369;28;20077;-86
2021/04/19 02:37:50;;;;;;;29.17;16.52;;;6.00;99.90;;;;;;4997297;28;20173;-85
2021/04/19 02:40:17;;;;;;;37.03;18.10;;;5.90;99.90;;;;;;5007988;28;20057;-86
2021/04/19 02:42:50;;;;;;;30.30;16.70;;;5.90;99.90;;;;;;5021691;28;20053;-85
2021/04/19 02:45:19;;;;;;;33.55;17.20;;;5.90;99.90;;;;;;5009595;28;20064;-85
2021/04/19 02:47:46;;;;;;;36.63;17.80;;;5.90;99.90;;;;;;5022605;28;20519;-85
2021/04/19 02:50:15;;;;;;;34.40;16.35;;;5.90;99.90;;;;;;5008968;28;20394;-86
2021/04/19 02:52:44;;;;;;;34.75;16.38;;;5.90;99.90;;;;;;5001495;28;20054;-86
2021/04/19 02:55:12;;;;;;;36.85;16.25;;;5.90;99.90;;;;;;5008835;28;20112;-86
2021/04/19 02:57:48;;;;;;;41.30;17.48;;;5.80;99.90;;;;;;5012220;28;20050;-86
2021/04/19 03:00:17;;;;;;;28.77;15.80;;;5.80;99.90;;;;;;5009836;28;20065;-85
2021/04/19 03:02:44;;;;;;;31.73;17.35;;;5.80;99.90;;;;;;5009138;28;20141;-86
2021/04/19 03:05:13;;;;;;;31.45;17.85;;;5.80;99.90;;;;;;5007443;28;20490;-86
2021/04/19 03:08:00;;;;;;;40.50;18.35;;;5.80;99.90;;;;;;5025978;28;20076;-86
2021/04/19 03:10:31;;;;;;;34.35;18.70;;;5.70;99.90;;;;;;5009321;28;20133;-86
2021/04/19 03:12:59;;;;;;;38.15;18.27;;;5.70;99.90;;;;;;5027246;28;20052;-86
2021/04/19 03:15:30;;;;;;;35.42;18.08;;;5.70;99.90;;;;;;5004609;28;20465;-86
2021/04/19 03:18:01;;;;;;;31.40;17.85;;;5.70;99.90;;;;;;5010160;28;20056;-86
2021/04/19 03:20:42;;;;;;;36.53;17.50;;;5.70;99.90;;;;;;5012561;28;20057;-85
2021/04/19 03:23:11;;;;;;;37.55;19.15;;;5.70;99.90;;;;;;5011905;28;20135;-86
2021/04/19 03:25:38;;;;;;;31.75;17.17;;;5.70;99.90;;;;;;5009433;28;20042;-86
2021/04/19 03:28:06;;;;;;;36.90;19.58;;;5.70;99.90;;;;;;5026817;28;20054;-86
2021/04/19 03:30:32;;;;;;;46.00;20.45;;;5.70;99.90;;;;;;5005436;28;20080;-86
2021/04/19 03:33:00;;;;;;;34.35;18.48;;;5.70;99.90;;;;;;5011989;28;20069;-86
2021/04/19 03:35:33;;;;;;;35.55;18.75;;;5.70;99.90;;;;;;5008352;28;20046;-86
2021/04/19 03:38:01;;;;;;;36.50;18.58;;;5.70;99.90;;;;;;5026488;28;20096;-87
2021/04/19 03:40:33;;;;;;;35.95;17.85;;;5.70;99.90;;;;;;5026256;28;20569;-87
2021/04/19 03:43:07;;;;;;;32.75;19.90;;;5.80;99.90;;;;;;5016768;28;20049;-85
2021/04/19 03:45:36;;;;;;;40.20;18.80;;;5.80;99.90;;;;;;5009421;28;20089;-85
2021/04/19 03:48:10;;;;;;;43.63;20.00;;;5.80;99.90;;;;;;5026577;28;20129;-86
2021/04/19 03:50:45;;;;;;;43.10;18.77;;;5.80;99.90;;;;;;5009840;28;20042;-85
2021/04/19 03:53:13;;;;;;;37.72;19.63;;;5.90;99.90;;;;;;5024834;28;20050;-85
2021/04/19 03:55:42;;;;;;;36.30;19.58;;;5.90;99.90;;;;;;5010482;28;20638;-84
2021/04/19 03:58:09;;;;;;;38.83;19.02;;;6.00;99.90;;;;;;5021886;28;20664;-86
2021/04/19 04:00:36;;;;;;;33.33;18.90;;;6.00;99.90;;;;;;5026432;28;20827;-86
2021/04/19 04:03:03;;;;;;;38.65;19.45;;;6.10;99.90;;;;;;5012483;28;20411;-86
2021/04/19 04:05:30;;;;;;;35.25;18.13;;;6.20;99.90;;;;;;5005430;28;20099;-85
2021/04/19 04:07:57;;;;;;;34.80;17.75;;;6.20;99.90;;;;;;5007387;28;20132;-84
2021/04/19 04:10:24;;;;;;;41.10;18.63;;;6.20;99.90;;;;;;5025622;28;20092;-85
2021/04/19 04:12:51;;;;;;;39.10;18.55;;;6.30;99.90;;;;;;5011696;28;20050;-85
2021/04/19 04:15:18;;;;;;;32.47;18.23;;;6.30;99.90;;;;;;5009004;28;20058;-85
2021/04/19 04:17:45;;;;;;;33.42;18.08;;;6.40;99.90;;;;;;5010216;28;20136;-86
2021/04/19 04:20:12;;;;;;;32.88;18.05;;;6.50;99.90;;;;;;5013552;28;20557;-86
2021/04/19 04:22:39;;;;;;;34.78;17.50;;;6.50;99.90;;;;;;5010321;28;20060;-86
2021/04/19 04:25:06;;;;;;;31.30;17.15;;;6.60;99.90;;;;;;5023051;28;20062;-86
2021/04/19 04:27:33;;;;;;;32.40;18.35;;;6.70;99.90;;;;;;5005495;28;20138;-85
2021/04/19 04:29:59;;;;;;;32.28;18.25;;;6.70;99.90;;;;;;5001851;28;20096;-85
2021/04/19 04:32:25;;;;;;;31.88;17.95;;;6.80;99.90;;;;;;5023524;28;20077;-85
2021/04/19 04:34:52;;;;;;;30.90;17.08;;;6.80;99.90;;;;;;5012173;28;20077;-86
2021/04/19 04:37:19;;;;;;;36.03;18.08;;;6.80;99.90;;;;;;5004862;28;20061;-86
2021/04/19 04:39:45;;;;;;;27.73;18.15;;;6.80;99.90;;;;;;5004163;28;20086;-85
2021/04/19 04:42:17;;;;;;;35.05;19.30;;;6.90;99.90;;;;;;5006930;28;20054;-86
2021/04/19 04:44:46;;;;;;;28.52;17.88;;;6.90;99.90;;;;;;5006857;28;20049;-86
2021/04/19 04:47:20;;;;;;;32.53;17.55;;;6.90;99.90;;;;;;5009470;28;20081;-86
2021/04/19 04:49:51;;;;;;;32.50;17.75;;;6.90;99.90;;;;;;5011836;28;20049;-86
2021/04/19 04:52:19;;;;;;;36.47;18.92;;;6.90;99.90;;;;;;4987185;28;548994;-86
2021/04/19 04:54:49;;;;;;;31.23;18.20;;;6.90;99.90;;;;;;5006906;28;20056;-86
2021/04/19 04:57:20;;;;;;;34.30;18.83;;;6.90;99.90;;;;;;5002019;28;20060;-85
2021/04/19 04:59:49;;;;;;;36.58;17.63;;;6.90;99.90;;;;;;4998480;28;20076;-85
2021/04/19 05:02:20;;;;;;;36.85;19.38;;;7.00;99.90;;;;;;5005352;28;20555;-85
2021/04/19 05:04:49;;;;;;;28.80;17.23;;;7.00;99.90;;;;;;5004802;28;20042;-85
2021/04/19 05:07:16;;;;;;;38.10;18.42;;;7.00;99.90;;;;;;5004068;28;20153;-85
2021/04/19 05:09:47;;;;;;;31.50;17.83;;;7.00;99.90;;;;;;5005717;28;20049;-85
2021/04/19 05:12:15;;;;;;;29.33;17.67;;;7.10;99.90;;;;;;5001711;28;20050;-86
2021/04/19 05:14:55;;;;;;;36.55;18.45;;;7.10;99.90;;;;;;5016884;28;20105;-85
2021/04/19 05:17:21;;;;;;;29.85;18.55;;;7.20;99.90;;;;;;4985065;28;20046;-85
2021/04/19 05:19:47;;;;;;;39.30;18.48;;;7.20;99.90;;;;;;5002032;28;20030;-86
2021/04/19 05:22:14;;;;;;;36.47;18.55;;;7.30;99.90;;;;;;4999208;28;20054;-86
2021/04/19 05:24:40;;;;;;;32.38;17.02;;;7.50;99.90;;;;;;5002879;28;20169;-85
2021/04/19 05:27:10;;;;;;;30.75;17.10;;;7.60;99.90;;;;;;5004689;28;20631;-84
2021/04/19 05:29:38;;;;;;;30.58;16.58;;;7.80;99.90;;;;;;5006345;28;20049;-84
2021/04/19 05:32:07;;;;;;;34.22;18.08;;;7.90;99.90;;;;;;5001556;28;20600;-84
2021/04/19 05:34:35;;;;;;;30.88;17.65;;;8.00;99.90;;;;;;5020325;28;20049;-85
2021/04/19 05:37:03;;;;;;;27.13;16.25;;;8.20;99.90;;;;;;5026797;28;20050;-85
2021/04/19 05:39:32;;;;;;;25.38;15.32;;;8.30;99.90;;;;;;5009533;28;20080;-84
2021/04/19 05:42:04;;;;;;;29.05;16.85;;;8.40;99.90;;;;;;5008569;28;20046;-84
2021/04/19 05:44:31;;;;;;;27.33;16.02;;;8.50;99.90;;;;;;5008028;28;20132;-84
2021/04/19 05:47:01;;;;;;;26.38;15.75;;;8.50;99.90;;;;;;5009367;28;20046;-84
2021/04/19 05:49:28;;;;;;;24.25;15.10;;;8.50;99.90;;;;;;5012348;28;20465;-84
2021/04/19 05:52:01;;;;;;;30.85;17.08;;;8.50;99.90;;;;;;5007421;28;20050;-84
2021/04/19 05:54:28;;;;;;;35.72;17.15;;;8.40;99.90;;;;;;5006155;28;20143;-84
2021/04/19 05:57:02;;;;;;;25.13;15.75;;;8.40;99.90;;;;;;5008204;28;20053;-84
2021/04/19 05:59:41;;;;;;;25.33;16.65;;;8.40;99.90;;;;;;5037970;28;20046;-84
2021/04/19 06:02:09;;;;;;;28.77;15.85;;;8.40;99.90;;;;;;5022301;28;20049;-85
2021/04/19 06:04:52;;;;;;;28.98;16.92;;;8.50;99.90;;;;;;5017620;28;20225;-85
2021/04/19 06:07:43;;;;;;;29.88;17.05;;;8.40;99.90;;;;;;5016456;28;20449;-85
2021/04/19 06:10:18;;;;;;;29.40;16.77;;;8.40;99.90;;;;;;5029891;28;20130;-86
2021/04/19 06:12:49;;;;;;;28.25;17.48;;;8.30;99.90;;;;;;5012508;28;20053;-85
2021/04/19 06:15:18;;;;;;;30.63;18.08;;;8.20;99.90;;;;;;5009651;28;20050;-85
2021/04/19 06:17:50;;;;;;;28.48;17.27;;;8.20;99.90;;;;;;5003689;28;20057;-85
2021/04/19 06:20:21;;;;;;;34.17;18.45;;;8.30;99.90;;;;;;5009641;28;20107;-85
2021/04/19 06:22:52;;;;;;;31.13;17.08;;;8.50;99.90;;;;;;5005083;28;20109;-85
2021/04/19 06:25:20;;;;;;;31.55;17.65;;;8.60;99.90;;;;;;4984647;28;20050;-85
2021/04/19 06:27:48;;;;;;;28.13;15.50;;;8.80;99.90;;;;;;4995407;28;20557;-86
2021/04/19 06:30:19;;;;;;;27.25;15.95;;;8.90;99.90;;;;;;5006231;28;20049;-86
2021/04/19 06:32:48;;;;;;;24.02;14.38;;;9.00;99.90;;;;;;5002347;28;20107;-86
2021/04/19 06:35:16;;;;;;;25.08;17.38;;;9.20;99.90;;;;;;4997973;28;20057;-86
2021/04/19 06:37:48;;;;;;;32.53;16.67;;;9.20;99.90;;;;;;5015387;28;20058;-86
2021/04/19 06:40:15;;;;;;;28.77;16.42;;;9.20;99.90;;;;;;5000879;28;20149;-87
2021/04/19 06:42:42;;;;;;;32.38;16.77;;;9.30;99.90;;;;;;5003969;28;21090;-86
2021/04/19 06:45:13;;;;;;;28.55;17.30;;;9.40;99.90;;;;;;4999901;28;20152;-86
2021/04/19 06:47:41;;;;;;;34.03;17.17;;;9.50;99.90;;;;;;5002099;28;20050;-86
2021/04/19 06:50:09;;;;;;;26.25;16.42;;;9.50;99.90;;;;;;5002145;28;20046;-86
2021/04/19 06:52:36;;;;;;;26.05;16.92;;;9.60;99.90;;;;;;5007110;28;20104;-86
2021/04/19 06:55:05;;;;;;;24.55;16.65;;;9.70;99.90;;;;;;5006362;28;20054;-86
2021/04/19 06:57:35;;;;;;;28.83;17.48;;;9.70;99.90;;;;;;5019543;28;20118;-87
2021/04/19 07:00:05;;;;;;;28.67;17.25;;;9.80;99.90;;;;;;4986992;28;20041;-87
2021/04/19 07:02:38;;;;;;;30.27;16.70;;;9.80;99.90;;;;;;5000687;28;20057;-85
2021/04/19 07:05:06;;;;;;;29.65;17.30;;;9.90;99.90;;;;;;4982756;28;20049;-86
2021/04/19 07:07:41;;;;;;;25.48;16.15;;;10.10;99.90;;;;;;5001089;28;20127;-87
2021/04/19 07:10:08;;;;;;;26.02;16.92;;;10.10;99.90;;;;;;5017260;28;20387;-85
2021/04/19 07:12:36;;;;;;;28.65;17.70;;;10.00;99.90;;;;;;5020310;28;20069;-84
2021/04/19 07:15:06;;;;;;;28.58;17.08;;;10.10;99.90;;;;;;5003953;28;20088;-84
2021/04/19 07:17:32;;;;;;;41.92;18.95;;;10.20;99.90;;;;;;4997517;28;20505;-85
2021/04/19 07:19:59;;;;;;;26.48;17.13;;;10.40;99.90;;;;;;5005325;28;20049;-85
2021/04/19 07:22:26;;;;;;;27.95;16.88;;;10.60;99.90;;;;;;5002813;28;20109;-85
2021/04/19 07:24:53;;;;;;;30.80;17.88;;;10.80;99.90;;;;;;5003926;28;20108;-84
2021/04/19 07:27:19;;;;;;;29.98;18.63;;;10.90;99.90;;;;;;5008579;28;20064;-84
2021/04/19 07:29:46;;;;;;;33.72;18.42;;;10.90;99.90;;;;;;5021007;28;20057;-84
2021/04/19 07:32:14;;;;;;;27.70;18.45;;;10.90;99.90;;;;;;5003633;28;20046;-85
2021/04/19 07:34:40;;;;;;;33.28;18.42;;;11.00;99.90;;;;;;4999293;28;20054;-85
2021/04/19 07:37:10;;;;;;;38.45;20.65;;;11.00;99.90;;;;;;5009293;28;20049;-85
2021/04/19 07:39:39;;;;;;;26.48;17.02;;;11.20;99.90;;;;;;5024769;28;20160;-86
2021/04/19 07:42:07;;;;;;;30.75;17.73;;;11.30;99.90;;;;;;5024603;28;20097;-86
2021/04/19 07:44:55;;;;;;;29.85;19.02;;;11.40;99.90;;;;;;5009489;28;20049;-86
2021/04/19 07:47:41;;;;;;;25.50;16.92;;;11.60;99.90;;;;;;5021674;28;20062;-84
2021/04/19 07:50:21;;;;;;;24.13;16.67;;;11.80;99.90;;;;;;4999835;28;20053;-86
2021/04/19 07:52:57;;;;;;;23.52;16.48;;;12.20;99.90;;;;;;5019729;28;20088;-86
2021/04/19 07:55:30;;;;;;;29.60;18.10;;;12.30;99.90;;;;;;5020596;28;20395;-85
2021/04/19 07:58:17;;;;;;;26.60;16.38;;;12.50;99.90;;;;;;5001827;28;20080;-86
2021/04/19 08:00:44;;;;;;;29.20;16.73;;;12.70;99.90;;;;;;5003302;28;20084;-85
2021/04/19 08:03:20;;;;;;;30.40;17.17;;;12.80;99.90;;;;;;5023885;28;20054;-85
2021/04/19 08:05:51;;;;;;;28.30;17.98;;;12.90;99.90;;;;;;5000020;28;20136;-86
2021/04/19 08:08:28;;;;;;;26.92;17.35;;;13.00;99.90;;;;;;5004652;28;20062;-84
2021/04/19 08:11:06;;;;;;;23.00;14.88;;;13.20;99.90;;;;;;5008957;28;20045;-85
2021/04/19 08:13:33;;;;;;;25.30;15.57;;;13.30;99.90;;;;;;5007845;28;20466;-85
2021/04/19 08:16:13;;;;;;;21.85;14.98;;;13.50;99.90;;;;;;5001987;28;21064;-85
2021/04/19 08:18:40;;;;;;;23.50;14.93;;;13.60;99.90;;;;;;5006006;28;20495;-85
2021/04/19 08:21:07;;;;;;;19.15;13.90;;;13.40;99.90;;;;;;5023779;28;20072;-86
2021/04/19 08:23:52;;;;;;;20.70;13.57;;;13.40;99.90;;;;;;5008588;28;20045;-85
2021/04/19 08:26:18;;;;;;;19.63;13.32;;;13.40;99.90;;;;;;5010302;28;20091;-86
2021/04/19 08:28:49;;;;;;;20.27;13.20;;;13.40;99.90;;;;;;5023138;28;20045;-85
2021/04/19 08:31:16;;;;;;;17.65;13.27;;;13.60;99.90;;;;;;5026623;28;20137;-84
2021/04/19 08:33:44;;;;;;;18.45;11.88;;;13.60;99.90;;;;;;5028603;28;20046;-85
2021/04/19 08:36:14;;;;;;;18.83;12.70;;;13.80;99.90;;;;;;5008131;28;20046;-84
2021/04/19 08:38:42;;;;;;;15.13;11.35;;;13.90;99.90;;;;;;5009743;28;20155;-84
2021/04/19 08:41:10;;;;;;;14.98;11.50;;;14.10;99.90;;;;;;5006116;28;20077;-85
2021/04/19 08:43:38;;;;;;;17.40;11.52;;;14.10;99.90;;;;;;5010511;28;20072;-86
2021/04/19 08:46:06;;;;;;;14.73;11.52;;;14.20;99.90;;;;;;5022356;28;20100;-85
2021/04/19 08:48:33;;;;;;;16.00;11.75;;;14.30;99.90;;;;;;5019459;28;20505;-85
2021/04/19 08:51:02;;;;;;;13.68;10.70;;;14.40;99.90;;;;;;5008227;28;20516;-86
2021/04/19 08:53:29;;;;;;;14.88;10.43;;;14.40;99.90;;;;;;4994539;28;20050;-87
2021/04/19 08:56:01;;;;;;;15.68;11.00;;;14.50;99.90;;;;;;5021190;28;20505;-85
2021/04/19 08:58:29;;;;;;;12.82;10.35;;;14.70;99.90;;;;;;5005546;28;20152;-85
2021/04/19 09:00:59;;;;;;;13.35;10.30;;;14.80;99.90;;;;;;5005948;28;20073;-85
2021/04/19 09:03:26;;;;;;;13.90;10.63;;;15.00;99.90;;;;;;5023547;28;20108;-85
2021/04/19 09:05:55;;;;;;;15.70;11.27;;;15.00;99.90;;;;;;5000285;28;20113;-85
2021/04/19 09:08:22;;;;;;;15.90;11.48;;;14.90;99.90;;;;;;5000923;28;20049;-86
2021/04/19 09:10:53;;;;;;;12.30;10.23;;;14.80;99.90;;;;;;4995663;28;20057;-86
2021/04/19 09:13:31;;;;;;;10.68;8.73;;;14.90;99.90;;;;;;5019409;28;20046;-85
2021/04/19 09:16:17;;;;;;;16.20;10.73;;;15.00;99.90;;;;;;5002635;28;20161;-86
2021/04/19 09:18:46;;;;;;;14.45;10.52;;;15.00;99.90;;;;;;5024437;28;20123;-85
2021/04/19 09:21:35;;;;;;;10.50;7.88;;;14.90;99.90;;;;;;5023697;28;20046;-85
2021/04/19 09:24:10;;;;;;;14.63;10.63;;;15.00;99.90;;;;;;5004227;28;20056;-85
2021/04/19 09:27:01;;;;;;;12.93;9.30;;;15.20;99.90;;;;;;5006131;28;20088;-85
2021/04/19 09:29:28;;;;;;;11.18;8.93;;;15.50;99.90;;;;;;5006372;28;20056;-85
2021/04/19 09:32:05;;;;;;;13.23;10.05;;;15.70;99.90;;;;;;5022546;28;20136;-86
2021/04/19 09:34:57;;;;;;;11.95;9.65;;;15.80;99.90;;;;;;5003888;28;20097;-84
2021/04/19 09:37:36;;;;;;;14.18;9.48;;;15.50;99.90;;;;;;5019506;28;20058;-86
2021/04/19 09:40:15;;;;;;;11.90;9.35;;;15.40;99.90;;;;;;4996676;28;20129;-85
2021/04/19 09:42:56;;;;;;;11.75;9.65;;;15.40;99.90;;;;;;5005764;28;20451;-84
2021/04/19 09:45:41;;;;;;;13.63;10.02;;;15.70;99.90;;;;;;5008815;28;20053;-86
2021/04/19 09:48:30;;;;;;;10.77;8.60;;;15.90;99.90;;;;;;5006332;28;20058;-86
2021/04/19 09:51:14;;;;;;;10.05;8.35;;;16.00;99.90;;;;;;5018764;28;20050;-86
2021/04/19 09:53:59;;;;;;;10.90;8.27;;;16.00;99.90;;;;;;5017849;28;20186;-86
2021/04/19 09:56:38;;;;;;;15.13;9.43;;;16.20;99.90;;;;;;5022922;28;20046;-87
2021/04/19 09:59:07;;;;;;;12.73;9.35;;;16.30;99.90;;;;;;5000386;28;20050;-84
2021/04/19 10:01:36;;;;;;;10.65;8.07;;;16.10;99.90;;;;;;5004920;28;20104;-86
2021/04/19 10:04:04;;;;;;;11.95;8.45;;;15.80;99.90;;;;;;5003682;28;20133;-85
2021/04/19 10:06:38;;;;;;;11.00;8.98;;;15.80;99.90;;;;;;5023796;28;20144;-86
2021/04/19 10:09:09;;;;;;;12.02;8.82;;;16.10;99.90;;;;;;5002611;28;20120;-86
2021/04/19 10:11:41;;;;;;;9.98;8.43;;;16.50;99.90;;;;;;5021026;28;20066;-86
2021/04/19 10:14:09;;;;;;;10.13;8.68;;;16.60;99.90;;;;;;5007285;28;20410;-85
2021/04/19 10:16:50;;;;;;;14.57;9.02;;;16.80;99.90;;;;;;5006994;28;20082;-86
2021/04/19 10:19:28;;;;;;;12.43;9.82;;;16.80;98.90;;;;;;5004438;28;20045;-85
2021/04/19 10:22:03;;;;;;;13.60;8.63;;;16.70;99.90;;;;;;5004205;28;20120;-85
2021/04/19 10:24:31;;;;;;;11.52;8.75;;;16.60;99.90;;;;;;5019672;28;20120;-86
2021/04/19 10:26:58;;;;;;;10.68;8.30;;;16.50;99.60;;;;;;5003161;28;20057;-86
2021/04/19 10:29:28;;;;;;;11.25;7.90;;;16.50;99.80;;;;;;4999881;28;20046;-86
2021/04/19 10:32:00;;;;;;;8.63;6.18;;;16.50;99.90;;;;;;5002535;28;20463;-85
2021/04/19 10:34:32;;;;;;;10.18;7.63;;;16.80;99.20;;;;;;4998066;28;20045;-86
2021/04/19 10:37:21;;;;;;;10.85;8.10;;;17.20;98.50;;;;;;4985865;28;20041;-86
2021/04/19 10:39:57;;;;;;;10.90;7.90;;;17.40;97.30;;;;;;4990524;28;20104;-86
2021/04/19 10:42:31;;;;;;;8.90;6.70;;;17.60;96.10;;;;;;5001623;28;20120;-87
2021/04/19 10:45:09;;;;;;;11.35;7.82;;;17.60;92.70;;;;;;4996991;28;20061;-86
2021/04/19 10:47:35;;;;;;;9.90;7.65;;;17.40;92.90;;;;;;5019856;28;20058;-85
2021/04/19 10:50:02;;;;;;;9.82;7.85;;;17.20;93.80;;;;;;5011484;28;20058;-85
2021/04/19 10:52:29;;;;;;;10.38;7.72;;;17.00;93.70;;;;;;5021314;28;20049;-85
2021/04/19 10:54:56;;;;;;;12.70;8.52;;;16.90;94.90;;;;;;5011508;28;20129;-86
2021/04/19 10:57:29;;;;;;;12.65;9.20;;;16.80;95.80;;;;;;4983489;28;20068;-86
2021/04/19 10:59:58;;;;;;;10.52;8.20;;;16.90;95.10;;;;;;4990462;28;20627;-85
2021/04/19 11:02:26;;;;;;;13.43;8.77;;;16.70;95.90;;;;;;4998778;28;20072;-85
2021/04/19 11:04:55;;;;;;;11.65;8.13;;;16.60;96.10;;;;;;5006950;28;20062;-86
2021/04/19 11:07:32;;;;;;;10.82;7.93;;;16.50;95.90;;;;;;4994857;28;20050;-84
2021/04/19 11:10:27;;;;;;;13.73;9.07;;;16.40;96.70;;;;;;5020807;28;20046;-86
2021/04/19 11:13:10;;;;;;;13.65;8.18;;;16.30;97.00;;;;;;5023455;28;20048;-86
2021/04/19 11:15:41;;;;;;;11.10;7.57;;;16.40;97.20;;;;;;5005575;28;20066;-84
2021/04/19 11:18:19;;;;;;;9.13;7.70;;;16.50;96.90;;;;;;5028093;28;20085;-85
2021/04/19 11:20:47;;;;;;;11.40;8.23;;;16.60;95.10;;;;;;5007746;28;20528;-85
2021/04/19 11:23:31;;;;;;;8.43;6.85;;;16.80;94.60;;;;;;5008867;28;20180;-84
2021/04/19 11:26:00;;;;;;;11.25;8.10;;;16.90;93.90;;;;;;5006000;28;20456;-84
2021/04/19 11:28:38;;;;;;;8.85;7.60;;;16.90;94.10;;;;;;4991809;28;20046;-84
2021/04/19 11:31:15;;;;;;;11.05;7.18;;;16.90;93.60;;;;;;5007713;28;20054;-84
2021/04/19 11:33:43;;;;;;;11.32;7.75;;;16.80;94.30;;;;;;5009895;28;20096;-84
2021/04/19 11:36:36;;;;;;;8.40;6.53;;;16.90;95.20;;;;;;5014181;28;20056;-84
2021/04/19 11:39:12;;;;;;;8.45;7.10;;;17.20;94.40;;;;;;5007207;28;20145;-85
2021/04/19 11:41:38;;;;;;;8.38;7.03;;;17.60;94.10;;;;;;5026015;28;20069;-85
2021/04/19 11:44:06;;;;;;;9.98;7.50;;;17.90;92.70;;;;;;5009018;28;20059;-85
2021/04/19 11:46:38;;;;;;;9.90;7.72;;;18.00;90.90;;;;;;5005312;28;20060;-84
2021/04/19 11:49:04;;;;;;;11.32;7.70;;;18.00;93.00;;;;;;5026073;28;20133;-84
2021/04/19 11:51:31;;;;;;;11.48;7.95;;;18.60;94.50;;;;;;5010504;28;20072;-85
2021/04/19 11:53:57;;;;;;;15.85;7.85;;;19.20;88.80;;;;;;5015041;28;20124;-84
2021/04/19 11:56:23;;;;;;;9.20;7.85;;;19.30;80.90;;;;;;5006126;28;20096;-85
2021/04/19 11:58:50;;;;;;;8.40;7.50;;;19.10;79.40;;;;;;5012119;28;20053;-85
2021/04/19 12:01:20;;;;;;;11.07;8.32;;;18.80;79.10;;;;;;5010814;28;20034;-85
2021/04/19 12:03:51;;;;;;;8.00;6.90;;;18.60;79.90;;;;;;5026048;28;20126;-85
2021/04/19 12:06:20;;;;;;;7.75;6.95;;;18.50;78.20;;;;;;5019924;28;20104;-85
2021/04/19 12:08:47;;;;;;;8.13;6.88;;;18.10;79.30;;;;;;5023850;28;20050;-85
2021/04/19 12:11:18;;;;;;;9.50;8.15;;;17.70;82.70;;;;;;5010181;28;20041;-84
2021/04/19 12:13:51;;;;;;;9.82;7.97;;;17.60;84.30;;;;;;5028201;28;20053;-85
2021/04/19 12:16:20;;;;;;;;;;;17.50;83.50;;;;;;5021398;28;20108;-85
2021/04/19 12:18:46;;;;;;;10.07;8.13;;;17.30;85.30;;;;;;5005338;28;19925;-85
2021/04/19 12:21:15;;;;;;;9.70;8.15;;;17.20;85.40;;;;;;5006681;28;20052;-85
2021/04/19 12:23:41;;;;;;;10.95;7.82;;;17.00;86.70;;;;;;5014433;28;20056;-86
2021/04/19 12:26:13;;;;;;;11.55;8.15;;;17.00;87.60;;;;;;5019400;28;20109;-86
2021/04/19 12:28:51;;;;;;;10.05;8.07;;;17.00;89.50;;;;;;5007187;28;20050;-85
2021/04/19 12:31:17;;;;;;;8.82;7.93;;;17.00;88.00;;;;;;5010460;28;20477;-85
2021/04/19 12:33:44;;;;;;;9.38;8.07;;;16.90;89.00;;;;;;5000169;28;20053;-85
2021/04/19 12:36:12;;;;;;;9.40;8.40;;;17.00;87.30;;;;;;5024135;28;20050;-84
2021/04/19 12:38:38;;;;;;;7.80;6.88;;;17.10;87.40;;;;;;5025133;28;20667;-84
2021/04/19 12:41:06;;;;;;;8.98;7.47;;;17.20;86.20;;;;;;5010657;28;20065;-86
2021/04/19 12:43:32;;;;;;;8.27;7.03;;;17.40;87.10;;;;;;5023934;28;20068;-85
2021/04/19 12:45:59;;;;;;;10.30;7.45;;;17.60;85.80;;;;;;5006835;28;20050;-84
2021/04/19 12:48:25;;;;;;;10.68;7.53;;;17.70;83.60;;;;;;5023349;28;20053;-84
2021/04/19 12:50:52;;;;;;;8.20;7.03;;;17.80;86.60;;;;;;5014533;28;20428;-85
2021/04/19 12:53:18;;;;;;;11.95;8.00;;;18.10;81.70;;;;;;5015320;28;20069;-84